createdAt,value
2018-06-14T00:00:47.959Z,100081.33
2018-06-14T00:03:16.727Z,100087.54
2018-06-14T00:05:47.293Z,100088.65
2018-06-14T00:08:17.114Z,100092.47
2018-06-14T00:10:45.893Z,100090.05
2018-06-14T00:13:14.654Z,100089.52
2018-06-14T00:15:44.503Z,100089.23
2018-06-14T00:18:13.314Z,100088.42
2018-06-14T00:20:42.514Z,100093.05
2018-06-14T00:23:12.279Z,100096.85
2018-06-14T00:25:41.481Z,100100.12
2018-06-14T00:28:11.127Z,100106.68
2018-06-14T00:30:40.712Z,100108.08
2018-06-14T00:33:09.798Z,100108.09
2018-06-14T00:35:38.934Z,100109.73
2018-06-14T00:38:07.706Z,100117.88
2018-06-14T00:40:36.607Z,100116.56
2018-06-14T00:43:05.412Z,100127.45
2018-06-14T00:45:35.298Z,100126.94
2018-06-14T00:48:04.816Z,100132.91
2018-06-14T00:50:34.258Z,100131.89
2018-06-14T00:53:03.522Z,100130.91
2018-06-14T00:55:32.414Z,100136.32
2018-06-14T00:58:01.310Z,100142.05
2018-06-14T01:00:30.124Z,100139.64
2018-06-14T01:02:58.985Z,100142.88
2018-06-14T01:05:27.910Z,100147.46
2018-06-14T01:07:58.698Z,100137.47
2018-06-14T01:10:27.528Z,100139.64
2018-06-14T01:12:56.366Z,100135.30
2018-06-14T01:15:26.125Z,100146.64
2018-06-14T01:17:55.617Z,100137.72
2018-06-14T01:20:25.447Z,100142.05
2018-06-14T01:22:54.233Z,100141.48
2018-06-14T01:25:22.993Z,100144.70
2018-06-14T01:27:51.818Z,100147.81
2018-06-14T01:30:20.593Z,100152.31
2018-06-14T01:32:49.596Z,100150.61
2018-06-14T01:35:19.307Z,100155.92
2018-06-14T01:37:58.971Z,100162.03
2018-06-14T01:40:27.755Z,100158.38
2018-06-14T01:42:56.544Z,100156.67
2018-06-14T01:45:25.970Z,100162.02
2018-06-14T01:47:56.351Z,100160.86
2018-06-14T01:50:25.133Z,100164.02
2018-06-14T01:52:54.791Z,100167.20
2018-06-14T01:55:23.687Z,100172.02
2018-06-14T01:57:52.526Z,100155.78
2018-06-14T02:00:21.476Z,100154.65
2018-06-14T02:02:50.316Z,100160.58
2018-06-14T02:05:19.326Z,100164.09
2018-06-14T02:07:49.270Z,100158.64
2018-06-14T02:10:18.043Z,100163.46
2018-06-14T02:12:46.792Z,100159.89
2018-06-14T02:15:16.224Z,100148.50
2018-06-14T02:17:45.595Z,100138.42
2018-06-14T02:20:15.817Z,100142.70
2018-06-14T02:22:44.607Z,100144.59
2018-06-14T02:25:13.859Z,100146.70
2018-06-14T02:27:42.642Z,100145.35
2018-06-14T02:30:11.816Z,100156.44
2018-06-14T02:32:40.890Z,100153.98
2018-06-14T02:35:11.452Z,100156.14
2018-06-14T02:37:42.401Z,100159.13
2018-06-14T02:40:13.143Z,100148.63
2018-06-14T02:42:43.065Z,100149.74
2018-06-14T02:45:12.514Z,100153.02
2018-06-14T02:47:42.202Z,100158.71
2018-06-14T02:50:11.552Z,100166.45
2018-06-14T02:52:40.662Z,100169.17
2018-06-14T02:55:09.889Z,100175.41
2018-06-14T02:57:39.330Z,100167.84
2018-06-14T03:00:09.783Z,100170.78
2018-06-14T03:02:38.593Z,100176.41
2018-06-14T03:05:07.442Z,100177.47
2018-06-14T03:07:37.240Z,100179.59
2018-06-14T03:10:06.413Z,100183.59
2018-06-14T03:12:35.167Z,100181.91
2018-06-14T03:15:05.200Z,100186.19
2018-06-14T03:17:34.929Z,100201.43
2018-06-14T03:20:04.638Z,100199.97
2018-06-14T03:22:33.613Z,100200.38
2018-06-14T03:25:02.614Z,100194.24
2018-06-14T03:27:31.511Z,100193.77
2018-06-14T03:30:00.272Z,100190.00
2018-06-14T03:32:29.399Z,100195.11
2018-06-14T03:34:59.359Z,100195.61
2018-06-14T03:38:31.037Z,100192.60
2018-06-14T03:40:59.867Z,100185.84
2018-06-14T03:43:29.911Z,100188.30
2018-06-14T03:45:59.542Z,100190.20
2018-06-14T03:48:28.272Z,100188.84
2018-06-14T03:50:57.086Z,100191.83
2018-06-14T03:53:25.854Z,100195.59
2018-06-14T03:55:54.654Z,100197.77
2018-06-14T03:58:23.521Z,100202.64
2018-06-14T04:00:53.049Z,100198.31
2018-06-14T04:03:21.817Z,100198.59
2018-06-14T04:05:51.350Z,100203.59
2018-06-14T04:08:21.065Z,100197.17
2018-06-14T04:10:49.809Z,100202.42
2018-06-14T04:13:18.554Z,100200.05
2018-06-14T04:15:47.991Z,100199.64
2018-06-14T04:18:17.585Z,100195.95
2018-06-14T04:20:46.345Z,100193.32
2018-06-14T04:23:15.126Z,100187.70
2018-06-14T04:25:43.962Z,100197.25
2018-06-14T04:28:12.729Z,100190.45
2018-06-14T04:30:41.756Z,100194.83
2018-06-14T04:33:11.391Z,100198.39
2018-06-14T04:35:40.991Z,100199.78
2018-06-14T04:38:10.731Z,100203.30
2018-06-14T04:40:39.547Z,100204.05
2018-06-14T04:43:09.767Z,100201.62
2018-06-14T04:45:39.770Z,100203.63
2018-06-14T04:48:09.392Z,100203.41
2018-06-14T04:50:38.128Z,100202.38
2018-06-14T04:53:06.972Z,100199.13
2018-06-14T04:55:35.752Z,100199.70
2018-06-14T04:58:04.614Z,100203.83
2018-06-14T05:00:34.238Z,100210.34
2018-06-14T05:03:03.239Z,100207.14
2018-06-14T05:05:32.091Z,100204.69
2018-06-14T05:08:01.827Z,100208.17
2018-06-14T05:10:30.580Z,100212.77
2018-06-14T05:12:59.390Z,100211.09
2018-06-14T05:15:28.964Z,100216.48
2018-06-14T05:17:57.770Z,100215.34
2018-06-14T05:20:27.226Z,100215.38
2018-06-14T05:22:55.970Z,100213.80
2018-06-14T05:25:24.762Z,100217.65
2018-06-14T05:27:53.534Z,100218.83
2018-06-14T05:30:22.287Z,100225.34
2018-06-14T05:32:51.327Z,100234.03
2018-06-14T05:35:21.852Z,100230.00
2018-06-14T05:37:50.601Z,100231.45
2018-06-14T05:40:19.922Z,100224.18
2018-06-14T05:42:48.678Z,100230.48
2018-06-14T05:45:18.158Z,100228.09
2018-06-14T05:47:47.675Z,100233.28
2018-06-14T05:50:16.438Z,100229.27
2018-06-14T05:52:45.178Z,100232.34
2018-06-14T05:55:14.006Z,100226.84
2018-06-14T05:57:42.794Z,100233.80
2018-06-14T06:00:16.806Z,100221.45
2018-06-14T06:02:47.509Z,100225.84
2018-06-14T06:05:16.771Z,100218.88
2018-06-14T06:07:46.280Z,100219.75
2018-06-14T06:10:16.010Z,100219.22
2018-06-14T06:12:44.792Z,100222.47
2018-06-14T06:15:14.331Z,100223.37
2018-06-14T06:17:44.322Z,100218.80
2018-06-14T06:20:17.277Z,100217.20
2018-06-14T06:22:46.628Z,100215.32
2018-06-14T06:25:15.694Z,100223.47
2018-06-14T06:27:44.512Z,100216.68
2018-06-14T06:30:13.411Z,100217.78
2018-06-14T06:32:42.220Z,100212.63
2018-06-14T06:35:12.377Z,100220.53
2018-06-14T06:37:42.153Z,100208.62
2018-06-14T06:40:11.181Z,100217.88
2018-06-14T06:42:40.068Z,100217.34
2018-06-14T06:45:09.988Z,100220.88
2018-06-14T06:47:39.862Z,100221.42
2018-06-14T06:50:09.118Z,100219.47
2018-06-14T06:52:38.004Z,100226.26
2018-06-14T06:55:06.820Z,100223.83
2018-06-14T06:57:35.631Z,100224.64
2018-06-14T07:00:05.527Z,100226.27
2018-06-14T07:02:34.461Z,100233.59
2018-06-14T07:05:03.650Z,100225.98
2018-06-14T07:07:33.011Z,100227.06
2018-06-14T07:10:01.803Z,100233.30
2018-06-14T07:12:30.669Z,100226.52
2018-06-14T07:15:00.306Z,100222.72
2018-06-14T07:17:29.746Z,100220.27
2018-06-14T07:19:59.516Z,100218.61
2018-06-14T07:22:28.309Z,100219.88
2018-06-14T07:24:57.082Z,100216.02
2018-06-14T07:27:25.886Z,100213.61
2018-06-14T07:29:54.606Z,100212.58
2018-06-14T07:32:23.483Z,100215.58
2018-06-14T07:34:53.557Z,100218.08
2018-06-14T07:37:22.342Z,100215.36
2018-06-14T07:39:51.078Z,100215.38
2018-06-14T07:42:19.891Z,100213.77
2018-06-14T07:44:49.322Z,100216.23
2018-06-14T07:47:18.922Z,100217.61
2018-06-14T07:49:47.719Z,100215.99
2018-06-14T07:52:16.481Z,100208.89
2018-06-14T07:54:45.282Z,100213.22
2018-06-14T07:57:14.090Z,100213.19
2018-06-14T07:59:44.130Z,100217.58
2018-06-14T08:02:12.930Z,100222.22
2018-06-14T08:04:41.806Z,100216.53
2018-06-14T08:07:11.620Z,100219.24
2018-06-14T08:09:40.663Z,100212.19
2018-06-14T08:12:09.657Z,100207.55
2018-06-14T08:14:38.491Z,100212.98
2018-06-14T08:17:08.053Z,100214.63
2018-06-14T08:19:37.926Z,100220.88
2018-06-14T08:22:06.752Z,100218.95
2018-06-14T08:24:35.594Z,100214.06
2018-06-14T08:27:04.415Z,100218.36
2018-06-14T08:29:33.596Z,100218.12
2018-06-14T08:32:03.259Z,100220.54
2018-06-14T08:34:32.135Z,100216.73
2018-06-14T08:37:01.706Z,100220.54
2018-06-14T08:39:30.677Z,100216.70
2018-06-14T08:41:59.515Z,100217.55
2018-06-14T08:44:29.359Z,100219.13
2018-06-14T08:46:58.968Z,100209.23
2018-06-14T08:49:27.803Z,100200.72
2018-06-14T08:51:56.582Z,100206.09
2018-06-14T08:54:25.412Z,100202.53
2018-06-14T08:56:54.193Z,100205.48
2018-06-14T08:59:23.750Z,100199.06
2018-06-14T09:01:52.549Z,100201.22
2018-06-14T09:04:21.320Z,100197.12
2018-06-14T09:06:50.950Z,100194.14
2018-06-14T09:09:19.694Z,100192.75
2018-06-14T09:11:48.435Z,100188.94
2018-06-14T09:14:17.277Z,100194.44
2018-06-14T09:16:47.686Z,100187.11
2018-06-14T09:19:17.399Z,100189.23
2018-06-14T09:21:46.182Z,100190.20
2018-06-14T09:24:15.035Z,100186.16
2018-06-14T09:26:44.164Z,100181.73
2018-06-14T09:29:13.815Z,100180.54
2018-06-14T09:31:42.725Z,100174.40
2018-06-14T09:34:11.650Z,100164.40
2018-06-14T09:36:41.335Z,100164.28
2018-06-14T09:39:10.915Z,100167.17
2018-06-14T09:41:40.245Z,100163.19
2018-06-14T09:44:09.136Z,100167.26
2018-06-14T09:46:38.786Z,100158.69
2018-06-14T09:49:09.445Z,100160.23
2018-06-14T09:51:38.477Z,100165.45
2018-06-14T09:54:07.386Z,100165.63
2018-06-14T09:56:36.144Z,100167.45
2018-06-14T09:59:05.166Z,100159.78
2018-06-14T10:01:34.884Z,100162.80
2018-06-14T10:04:04.237Z,100159.39
2018-06-14T10:06:33.886Z,100154.42
2018-06-14T10:09:03.034Z,100155.52
2018-06-14T10:11:32.082Z,100148.59
2018-06-14T10:14:01.006Z,100156.75
2018-06-14T10:16:30.619Z,100163.30
2018-06-14T10:19:00.446Z,100160.44
2018-06-14T10:21:29.240Z,100161.67
2018-06-14T10:23:58.198Z,100157.62
2018-06-14T10:26:27.694Z,100157.70
2018-06-14T10:28:56.493Z,100154.19
2018-06-14T10:31:25.294Z,100159.59
2018-06-14T10:33:54.125Z,100160.77
2018-06-14T10:36:23.609Z,100148.46
2018-06-14T10:38:52.862Z,100146.31
2018-06-14T10:41:21.752Z,100143.81
2018-06-14T10:43:50.567Z,100143.42
2018-06-14T10:46:20.282Z,100152.33
2018-06-14T10:48:49.030Z,100158.73
2018-06-14T10:51:17.806Z,100150.31
2018-06-14T10:53:46.843Z,100146.38
2018-06-14T10:56:15.602Z,100146.34
2018-06-14T10:58:44.482Z,100143.60
2018-06-14T11:01:14.031Z,100146.94
2018-06-14T11:03:43.034Z,100147.86
2018-06-14T11:06:13.130Z,100144.27
2018-06-14T11:08:42.707Z,100152.48
2018-06-14T11:11:11.769Z,100148.16
2018-06-14T11:13:40.630Z,100152.30
2018-06-14T11:16:10.153Z,100142.05
2018-06-14T11:18:39.818Z,100148.52
2018-06-14T11:21:08.694Z,100150.55
2018-06-14T11:23:37.433Z,100151.50
2018-06-14T11:26:06.908Z,100151.42
2018-06-14T11:28:35.662Z,100151.20
2018-06-14T11:31:04.474Z,100143.62
2018-06-14T11:33:33.372Z,100146.19
2018-06-14T11:36:03.250Z,100147.67
2018-06-14T11:38:32.139Z,100151.15
2018-06-14T11:41:01.166Z,100134.56
2018-06-14T11:43:29.942Z,100132.72
2018-06-14T11:45:59.475Z,100134.34
2018-06-14T11:48:28.239Z,100134.08
2018-06-14T11:50:57.042Z,100138.31
2018-06-14T11:53:25.804Z,100129.78
2018-06-14T11:55:54.572Z,100124.58
2018-06-14T11:58:23.434Z,100121.48
2018-06-14T12:00:53.172Z,100115.42
2018-06-14T12:03:22.691Z,100112.02
2018-06-14T12:05:52.177Z,100113.87
2018-06-14T12:08:21.684Z,100110.56
2018-06-14T12:10:50.426Z,100114.98
2018-06-14T12:13:19.211Z,100115.53
2018-06-14T12:15:48.930Z,100113.84
2018-06-14T12:18:18.505Z,100117.30
2018-06-14T12:20:47.330Z,100107.59
2018-06-14T12:23:17.240Z,100106.16
2018-06-14T12:25:46.038Z,100106.42
2018-06-14T12:28:14.860Z,100111.04
2018-06-14T12:30:44.132Z,100115.27
2018-06-14T12:33:13.138Z,100099.95
2018-06-14T12:35:43.005Z,100103.88
2018-06-14T12:38:11.941Z,100107.07
2018-06-14T12:40:40.706Z,100099.38
2018-06-14T12:43:09.514Z,100097.86
2018-06-14T12:45:39.071Z,100101.67
2018-06-14T12:48:08.369Z,100095.53
2018-06-14T12:50:37.121Z,100088.62
2018-06-14T12:53:05.949Z,100090.63
2018-06-14T12:55:34.742Z,100087.48
2018-06-14T12:58:03.633Z,100087.17
2018-06-14T13:00:33.692Z,100088.94
2018-06-14T13:03:02.574Z,100081.34
2018-06-14T13:05:31.496Z,100083.84
2018-06-14T13:08:01.200Z,100077.07
2018-06-14T13:10:29.942Z,100080.87
2018-06-14T13:12:58.912Z,100076.27
2018-06-14T13:15:28.798Z,100072.68
2018-06-14T13:17:57.826Z,100082.05
2018-06-14T13:20:27.141Z,100081.17
2018-06-14T13:22:56.016Z,100073.33
2018-06-14T13:25:24.823Z,100074.00
2018-06-14T13:27:53.660Z,100071.06
2018-06-14T13:30:22.571Z,100074.04
2018-06-14T13:32:51.815Z,100062.80
2018-06-14T13:35:21.593Z,100067.87
2018-06-14T13:37:51.112Z,100061.72
2018-06-14T13:40:20.794Z,100061.84
2018-06-14T13:42:49.627Z,100059.07
2018-06-14T13:45:19.002Z,100057.24
2018-06-14T13:47:49.957Z,100060.23
2018-06-14T13:50:18.715Z,100057.33
2018-06-14T13:52:47.651Z,100052.45
2018-06-14T13:55:16.450Z,100058.20
2018-06-14T13:57:46.148Z,100047.27
2018-06-14T14:00:15.627Z,100043.70
2018-06-14T14:02:44.673Z,100037.14
2018-06-14T14:05:13.675Z,100043.38
2018-06-14T14:07:43.087Z,100041.05
2018-06-14T14:10:11.864Z,100040.13
2018-06-14T14:12:40.630Z,100034.00
2018-06-14T14:15:13.419Z,100044.67
2018-06-14T14:17:43.187Z,100039.06
2018-06-14T14:20:12.993Z,100046.30
2018-06-14T14:22:42.034Z,100033.47
2018-06-14T14:25:10.802Z,100029.81
2018-06-14T14:27:39.583Z,100028.27
2018-06-14T14:30:08.367Z,100030.34
2018-06-14T14:32:37.401Z,100035.17
2018-06-14T14:35:07.646Z,100036.39
2018-06-14T14:37:37.805Z,100035.12
2018-06-14T14:40:07.626Z,100039.16
2018-06-14T14:42:36.405Z,100039.83
2018-06-14T14:45:06.222Z,100040.35
2018-06-14T14:47:35.628Z,100042.23
2018-06-14T14:50:04.734Z,100038.18
2018-06-14T14:52:34.024Z,100027.67
2018-06-14T14:55:02.939Z,100026.13
2018-06-14T14:57:31.699Z,100018.05
2018-06-14T15:00:01.436Z,100018.24
2018-06-14T15:02:30.186Z,100017.77
2018-06-14T15:04:58.964Z,100013.26
2018-06-14T15:07:28.814Z,100018.66
2018-06-14T15:09:57.796Z,100019.77
2018-06-14T15:12:26.590Z,100021.66
2018-06-14T15:14:57.634Z,100014.50
2018-06-14T15:17:26.878Z,100018.41
2018-06-14T15:19:56.443Z,100018.34
2018-06-14T15:22:25.221Z,100018.34
2018-06-14T15:24:54.014Z,100018.30
2018-06-14T15:27:22.791Z,100021.66
2018-06-14T15:29:51.882Z,100015.36
2018-06-14T15:32:20.761Z,100021.66
2018-06-14T15:34:50.496Z,100015.73
2018-06-14T15:37:20.124Z,100013.48
2018-06-14T15:39:49.861Z,100011.95
2018-06-14T15:42:18.606Z,100001.16
2018-06-14T15:44:48.389Z,99998.11
2018-06-14T15:47:17.763Z,100004.13
2018-06-14T15:49:47.402Z,100001.45
2018-06-14T15:52:16.192Z,100004.64
2018-06-14T15:54:45.504Z,99996.66
2018-06-14T15:57:14.531Z,99996.84
2018-06-14T15:59:44.005Z,99996.16
2018-06-14T16:02:13.079Z,99999.65
2018-06-14T16:04:42.727Z,100002.28
2018-06-14T16:07:12.703Z,99998.61
2018-06-14T16:09:42.084Z,99995.14
2018-06-14T16:12:11.746Z,99989.31
2018-06-14T16:14:40.506Z,99983.02
2018-06-14T16:17:10.411Z,99988.49
2018-06-14T16:19:39.781Z,99982.29
2018-06-14T16:22:08.579Z,99990.36
2018-06-14T16:24:37.366Z,99987.70
2018-06-14T16:27:06.166Z,99984.86
2018-06-14T16:29:34.938Z,99985.45
2018-06-14T16:32:04.030Z,99978.28
2018-06-14T16:34:33.180Z,99970.99
2018-06-14T16:37:03.307Z,99976.51
2018-06-14T16:39:33.318Z,99976.66
2018-06-14T16:42:02.498Z,99973.99
2018-06-14T16:44:33.146Z,99971.70
2018-06-14T16:47:02.570Z,99964.61
2018-06-14T16:49:33.242Z,99969.89
2018-06-14T16:52:02.184Z,99973.19
2018-06-14T16:54:31.903Z,99962.73
2018-06-14T16:57:00.833Z,99961.40
2018-06-14T16:59:30.511Z,99957.04
2018-06-14T17:01:59.279Z,99956.84
2018-06-14T17:04:28.250Z,99955.16
2018-06-14T17:06:57.720Z,99956.34
2018-06-14T17:09:26.560Z,99958.59
2018-06-14T17:11:56.175Z,99957.15
2018-06-14T17:14:24.971Z,99950.51
2018-06-14T17:16:54.390Z,99954.98
2018-06-14T17:19:23.878Z,99958.84
2018-06-14T17:21:52.607Z,99958.48
2018-06-14T17:24:21.387Z,99959.56
2018-06-14T17:26:50.201Z,99963.95
2018-06-14T17:29:19.006Z,99956.72
2018-06-14T17:31:48.214Z,99961.70
2018-06-14T17:34:17.181Z,99962.52
2018-06-14T17:36:46.784Z,99960.36
2018-06-14T17:39:16.738Z,99960.83
2018-06-14T17:41:46.390Z,99962.14
2018-06-14T17:44:15.706Z,99958.48
2018-06-14T17:46:45.382Z,99960.17
2018-06-14T17:49:15.995Z,99960.44
2018-06-14T17:51:46.282Z,99959.02
2018-06-14T17:54:16.192Z,99956.70
2018-06-14T17:56:45.973Z,99961.19
2018-06-14T17:59:15.209Z,99963.16
2018-06-14T18:01:44.833Z,99963.56
2018-06-14T18:04:13.879Z,99957.39
2018-06-14T18:06:43.439Z,99949.32
2018-06-14T18:09:13.061Z,99952.69
2018-06-14T18:11:41.817Z,99944.30
2018-06-14T18:14:10.587Z,99948.86
2018-06-14T18:16:40.203Z,99956.63
2018-06-14T18:19:09.927Z,99954.38
2018-06-14T18:21:38.809Z,99952.44
2018-06-14T18:24:07.543Z,99948.35
2018-06-14T18:26:36.370Z,99949.45
2018-06-14T18:29:05.119Z,99947.80
2018-06-14T18:31:34.279Z,99948.95
2018-06-14T18:34:03.509Z,99954.95
2018-06-14T18:36:33.699Z,99956.54
2018-06-14T18:39:03.311Z,99953.27
2018-06-14T18:41:33.778Z,99961.61
2018-06-14T18:44:02.572Z,99961.67
2018-06-14T18:46:32.166Z,99959.47
2018-06-14T18:49:01.844Z,99967.30
2018-06-14T18:51:30.943Z,99955.70
2018-06-14T18:53:59.756Z,99956.31
2018-06-14T18:56:28.680Z,99963.67
2018-06-14T18:58:57.451Z,99960.02
2018-06-14T19:01:27.520Z,99962.73
2018-06-14T19:03:56.233Z,99963.48
2018-06-14T19:06:26.412Z,99969.69
2018-06-14T19:08:55.675Z,99967.72
2018-06-14T19:11:24.464Z,99968.14
2018-06-14T19:13:53.221Z,99966.09
2018-06-14T19:16:22.706Z,99961.02
2018-06-14T19:18:52.686Z,99967.33
2018-06-14T19:21:21.751Z,99971.23
2018-06-14T19:23:50.494Z,99968.60
2018-06-14T19:26:19.407Z,99974.10
2018-06-14T19:28:48.119Z,99975.54
2018-06-14T19:31:18.389Z,99971.48
2018-06-14T19:33:47.338Z,99970.19
2018-06-14T19:36:16.889Z,99973.77
2018-06-14T19:38:45.944Z,99976.02
2018-06-14T19:41:15.749Z,99976.87
2018-06-14T19:43:44.846Z,99982.38
2018-06-14T19:46:14.649Z,99982.41
2018-06-14T19:48:44.634Z,99981.34
2018-06-14T19:51:13.649Z,99977.06
2018-06-14T19:53:42.576Z,99982.84
2018-06-14T19:56:11.653Z,99970.90
2018-06-14T19:58:40.384Z,99977.20
2018-06-14T20:01:10.073Z,99970.14
2018-06-14T20:03:39.410Z,99973.97
2018-06-14T20:06:09.099Z,99968.57
2018-06-14T20:08:39.731Z,99965.59
2018-06-14T20:11:08.756Z,99960.42
2018-06-14T20:13:38.537Z,99966.41
2018-06-14T20:16:08.175Z,99963.45
2018-06-14T20:18:37.782Z,99964.82
2018-06-14T20:21:06.851Z,99963.73
2018-06-14T20:23:35.681Z,99959.42
2018-06-14T20:26:04.540Z,99961.57
2018-06-14T20:28:33.392Z,99956.69
2018-06-14T20:31:02.422Z,99952.06
2018-06-14T20:33:31.413Z,99949.89
2018-06-14T20:36:01.210Z,99946.67
2018-06-14T20:38:30.014Z,99945.86
2018-06-14T20:40:59.542Z,99949.39
2018-06-14T20:43:28.306Z,99946.67
2018-06-14T20:45:58.138Z,99948.88
2018-06-14T20:48:27.154Z,99948.88
2018-06-14T20:50:55.924Z,99952.41
2018-06-14T20:54:27.414Z,99948.88
2018-06-14T20:56:57.262Z,99954.04
2018-06-14T20:59:27.443Z,99948.34
2018-06-14T21:01:56.782Z,99954.04
2018-06-14T21:04:25.585Z,99954.04
2018-06-14T21:06:55.269Z,99950.51
2018-06-14T21:09:24.115Z,99955.40
2018-06-14T21:11:52.867Z,99957.30
2018-06-14T21:14:21.782Z,99956.48
2018-06-14T21:16:51.254Z,99943.48
2018-06-14T21:19:20.674Z,99955.97
2018-06-14T21:21:50.397Z,99953.25
2018-06-14T21:24:19.192Z,99961.67
2018-06-14T21:26:48.009Z,99958.41
2018-06-14T21:29:16.851Z,99967.67
2018-06-14T21:31:46.406Z,99963.59
2018-06-14T21:34:15.520Z,99966.30
2018-06-14T21:36:46.156Z,99961.95
2018-06-14T21:39:16.227Z,99970.64
2018-06-14T21:41:45.454Z,99972.81
2018-06-14T21:44:14.677Z,99975.28
2018-06-14T21:46:45.013Z,99978.80
2018-06-14T21:49:15.032Z,99974.17
2018-06-14T21:51:44.627Z,99976.64
2018-06-14T21:54:14.715Z,99978.80
2018-06-14T21:56:43.713Z,99979.05
2018-06-14T21:59:13.634Z,99981.75
2018-06-14T22:01:44.794Z,99975.77
2018-06-14T22:04:13.606Z,99988.53
2018-06-14T22:06:43.757Z,99993.41
2018-06-14T22:09:12.558Z,99992.84
2018-06-14T22:11:41.379Z,99995.55
2018-06-14T22:14:10.851Z,99990.66
2018-06-14T22:16:40.390Z,99987.70
2018-06-14T22:19:10.093Z,99980.91
2018-06-14T22:21:38.882Z,99996.35
2018-06-14T22:24:08.420Z,99993.35
2018-06-14T22:26:37.213Z,100000.41
2018-06-14T22:29:05.988Z,100001.75
2018-06-14T22:31:34.811Z,99997.39
2018-06-14T22:34:14.709Z,100000.63
2018-06-14T22:36:45.170Z,99995.74
2018-06-14T22:39:16.454Z,99997.91
2018-06-14T22:41:45.903Z,99994.39
2018-06-14T22:44:15.018Z,99992.49
2018-06-14T22:46:45.318Z,99992.77
2018-06-14T22:49:14.187Z,99993.58
2018-06-14T22:52:54.740Z,99987.06
2018-06-14T22:55:25.273Z,99985.69
2018-06-14T22:57:54.141Z,99988.38
2018-06-14T23:01:38.879Z,99987.57
2018-06-14T23:04:09.094Z,99990.23
2018-06-14T23:06:38.575Z,99993.50
2018-06-14T23:10:29.944Z,99984.81
2018-06-14T23:12:58.842Z,99992.34
2018-06-14T23:15:28.502Z,99984.47
2018-06-14T23:17:57.370Z,99981.20
2018-06-14T23:20:27.810Z,99980.94
2018-06-14T23:22:58.278Z,99983.38
2018-06-14T23:25:27.893Z,99979.31
2018-06-14T23:27:56.640Z,99986.08
2018-06-14T23:30:25.465Z,99988.52
2018-06-14T23:32:54.253Z,99984.73
2018-06-14T23:35:23.714Z,99979.84
2018-06-14T23:37:53.232Z,99986.08
2018-06-14T23:40:22.717Z,99982.02
2018-06-14T23:42:51.454Z,99981.73
2018-06-14T23:45:20.259Z,99983.09
2018-06-14T23:47:49.745Z,99985.27
2018-06-14T23:50:18.507Z,99982.82
2018-06-14T23:52:47.292Z,99984.71
2018-06-14T23:55:16.916Z,99986.88
2018-06-14T23:57:45.773Z,99986.06
